sensor_id;sensor_type;location;lat;lon;timestamp;P1;durP1;ratioP1;P2;durP2;ratioP2
38637;SDS011;24401;53.034;-3.030;2022-12-01T19:42:43;39.63;;;11.30;;
38637;SDS011;24401;53.034;-3.030;2022-12-01T19:45:13;33.90;;;13.63;;
38637;SDS011;24401;53.034;-3.030;2022-12-01T19:47:43;30.07;;;14.00;;
38637;SDS011;24401;53.034;-3.030;2022-12-01T19:50:13;55.83;;;13.47;;
38637;SDS011;24401;53.034;-3.030;2022-12-01T19:52:44;38.53;;;15.90;;
38637;SDS011;24401;53.034;-3.030;2022-12-01T19:55:14;20.23;;;13.33;;
38637;SDS011;24401;53.034;-3.030;2022-12-01T19:57:48;25.95;;;13.30;;
38637;SDS011;24401;53.034;-3.030;2022-12-01T20:00:18;25.85;;;12.10;;
38637;SDS011;24401;53.034;-3.030;2022-12-01T20:02:50;32.83;;;18.45;;
38637;SDS011;24401;53.034;-3.030;2022-12-01T20:05:21;59.90;;;13.97;;
38637;SDS011;24401;53.034;-3.030;2022-12-01T20:07:51;45.47;;;17.20;;
38637;SDS011;24401;53.034;-3.030;2022-12-01T20:10:21;27.67;;;14.52;;
38637;SDS011;24401;53.034;-3.030;2022-12-01T20:12:52;35.70;;;14.10;;
38637;SDS011;24401;53.034;-3.030;2022-12-01T20:15:22;41.60;;;14.33;;
38637;SDS011;24401;53.034;-3.030;2022-12-01T20:17:54;31.35;;;13.10;;
38637;SDS011;24401;53.034;-3.030;2022-12-01T20:20:25;34.40;;;14.63;;
38637;SDS011;24401;53.034;-3.030;2022-12-01T20:22:55;31.00;;;13.57;;
38637;SDS011;24401;53.034;-3.030;2022-12-01T20:25:25;18.30;;;12.03;;
38637;SDS011;24401;53.034;-3.030;2022-12-01T20:27:55;25.67;;;12.33;;
38637;SDS011;24401;53.034;-3.030;2022-12-01T20:30:26;25.60;;;12.67;;
38637;SDS011;24401;53.034;-3.030;2022-12-01T20:32:56;27.27;;;12.02;;
38637;SDS011;24401;53.034;-3.030;2022-12-01T20:35:26;61.85;;;13.35;;
38637;SDS011;24401;53.034;-3.030;2022-12-01T20:37:56;37.47;;;14.37;;
38637;SDS011;24401;53.034;-3.030;2022-12-01T20:40:27;71.33;;;15.80;;
38637;SDS011;24401;53.034;-3.030;2022-12-01T20:42:57;47.33;;;18.07;;
38637;SDS011;24401;53.034;-3.030;2022-12-01T20:45:27;26.40;;;12.20;;
38637;SDS011;24401;53.034;-3.030;2022-12-01T20:47:57;41.47;;;14.90;;
38637;SDS011;24401;53.034;-3.030;2022-12-01T20:50:27;37.43;;;13.93;;
38637;SDS011;24401;53.034;-3.030;2022-12-01T20:52:58;62.73;;;13.67;;
38637;SDS011;24401;53.034;-3.030;2022-12-01T20:55:28;29.13;;;14.73;;
38637;SDS011;24401;53.034;-3.030;2022-12-01T20:57:58;30.10;;;14.40;;
38637;SDS011;24401;53.034;-3.030;2022-12-01T21:00:29;29.80;;;12.77;;
38637;SDS011;24401;53.034;-3.030;2022-12-01T21:02:59;31.93;;;12.50;;
38637;SDS011;24401;53.034;-3.030;2022-12-01T21:05:29;97.37;;;13.30;;
38637;SDS011;24401;53.034;-3.030;2022-12-01T21:08:02;36.10;;;13.48;;
38637;SDS011;24401;53.034;-3.030;2022-12-01T21:10:34;49.37;;;15.13;;
38637;SDS011;24401;53.034;-3.030;2022-12-01T21:13:11;57.83;;;12.25;;
38637;SDS011;24401;53.034;-3.030;2022-12-01T21:16:01;51.10;;;11.95;;
38637;SDS011;24401;53.034;-3.030;2022-12-01T21:18:34;29.97;;;12.13;;
38637;SDS011;24401;53.034;-3.030;2022-12-01T21:21:28;45.53;;;12.32;;
38637;SDS011;24401;53.034;-3.030;2022-12-01T21:24:01;26.10;;;12.70;;
38637;SDS011;24401;53.034;-3.030;2022-12-01T21:26:33;44.67;;;13.50;;
38637;SDS011;24401;53.034;-3.030;2022-12-01T21:29:38;45.75;;;15.52;;
38637;SDS011;24401;53.034;-3.030;2022-12-01T21:32:02;34.20;;;14.73;;
38637;SDS011;24401;53.034;-3.030;2022-12-01T21:34:35;26.23;;;15.30;;
38637;SDS011;24401;53.034;-3.030;2022-12-01T21:37:09;33.40;;;15.07;;
38637;SDS011;24401;53.034;-3.030;2022-12-01T21:39:40;31.83;;;17.40;;
38637;SDS011;24401;53.034;-3.030;2022-12-01T21:42:15;46.37;;;13.93;;
38637;SDS011;24401;53.034;-3.030;2022-12-01T21:44:46;28.55;;;12.73;;
38637;SDS011;24401;53.034;-3.030;2022-12-01T21:47:20;55.50;;;19.33;;
38637;SDS011;24401;53.034;-3.030;2022-12-01T21:49:52;20.65;;;11.15;;
38637;SDS011;24401;53.034;-3.030;2022-12-01T21:52:31;24.05;;;10.65;;
38637;SDS011;24401;53.034;-3.030;2022-12-01T21:57:46;26.30;;;12.00;;
38637;SDS011;24401;53.034;-3.030;2022-12-01T22:02:52;33.25;;;11.60;;
38637;SDS011;24401;53.034;-3.030;2022-12-01T22:05:32;60.92;;;11.40;;
38637;SDS011;24401;53.034;-3.030;2022-12-01T22:08:25;18.27;;;9.45;;
38637;SDS011;24401;53.034;-3.030;2022-12-01T22:11:14;23.60;;;10.10;;
38637;SDS011;24401;53.034;-3.030;2022-12-01T22:13:45;69.90;;;10.40;;
38637;SDS011;24401;53.034;-3.030;2022-12-01T22:18:51;35.70;;;9.70;;
38637;SDS011;24401;53.034;-3.030;2022-12-01T22:23:56;34.65;;;11.10;;
38637;SDS011;24401;53.034;-3.030;2022-12-01T22:26:28;53.75;;;9.70;;
38637;SDS011;24401;53.034;-3.030;2022-12-01T22:28:58;38.97;;;11.73;;
38637;SDS011;24401;53.034;-3.030;2022-12-01T22:31:29;35.40;;;10.10;;
38637;SDS011;24401;53.034;-3.030;2022-12-01T22:33:59;19.75;;;11.25;;
38637;SDS011;24401;53.034;-3.030;2022-12-01T22:36:30;49.58;;;10.40;;
38637;SDS011;24401;53.034;-3.030;2022-12-01T22:39:02;35.42;;;11.32;;
38637;SDS011;24401;53.034;-3.030;2022-12-01T22:41:38;80.50;;;12.77;;
38637;SDS011;24401;53.034;-3.030;2022-12-01T22:44:08;43.37;;;12.97;;
38637;SDS011;24401;53.034;-3.030;2022-12-01T22:46:41;60.10;;;12.07;;
38637;SDS011;24401;53.034;-3.030;2022-12-01T22:49:15;39.27;;;12.10;;
38637;SDS011;24401;53.034;-3.030;2022-12-01T22:51:55;40.20;;;9.18;;
38637;SDS011;24401;53.034;-3.030;2022-12-01T22:54:36;77.05;;;12.43;;
38637;SDS011;24401;53.034;-3.030;2022-12-01T22:57:21;32.80;;;9.48;;
38637;SDS011;24401;53.034;-3.030;2022-12-01T22:59:52;17.65;;;9.10;;
38637;SDS011;24401;53.034;-3.030;2022-12-01T23:02:24;84.20;;;9.10;;
38637;SDS011;24401;53.034;-3.030;2022-12-01T23:04:57;55.05;;;8.88;;
38637;SDS011;24401;53.034;-3.030;2022-12-01T23:07:30;39.90;;;8.93;;
38637;SDS011;24401;53.034;-3.030;2022-12-01T23:12:31;24.17;;;8.10;;
38637;SDS011;24401;53.034;-3.030;2022-12-01T23:17:51;77.40;;;8.85;;
38637;SDS011;24401;53.034;-3.030;2022-12-01T23:20:26;32.17;;;8.70;;
38637;SDS011;24401;53.034;-3.030;2022-12-01T23:22:57;39.45;;;9.05;;
38637;SDS011;24401;53.034;-3.030;2022-12-01T23:25:28;31.25;;;8.60;;
38637;SDS011;24401;53.034;-3.030;2022-12-01T23:27:59;41.60;;;9.23;;
38637;SDS011;24401;53.034;-3.030;2022-12-01T23:30:31;50.05;;;8.73;;
38637;SDS011;24401;53.034;-3.030;2022-12-01T23:33:22;81.47;;;10.43;;
38637;SDS011;24401;53.034;-3.030;2022-12-01T23:36:03;17.98;;;9.18;;
38637;SDS011;24401;53.034;-3.030;2022-12-01T23:38:41;44.72;;;9.18;;
38637;SDS011;24401;53.034;-3.030;2022-12-01T23:41:12;21.33;;;8.90;;
38637;SDS011;24401;53.034;-3.030;2022-12-01T23:43:45;28.90;;;8.43;;
38637;SDS011;24401;53.034;-3.030;2022-12-01T23:46:17;20.53;;;9.10;;
38637;SDS011;24401;53.034;-3.030;2022-12-01T23:48:58;49.85;;;9.90;;
38637;SDS011;24401;53.034;-3.030;2022-12-01T23:51:34;27.30;;;8.63;;
38637;SDS011;24401;53.034;-3.030;2022-12-01T23:54:10;19.00;;;8.02;;
38637;SDS011;24401;53.034;-3.030;2022-12-01T23:56:41;25.60;;;9.60;;
38637;SDS011;24401;53.034;-3.030;2022-12-01T23:59:12;21.27;;;9.03;;
